sensor_id;sensor_type;location;lat;lon;timestamp;P1;durP1;ratioP1;P2;durP2;ratioP2
1601;SDS011;794;48.592;9.634;2023-03-24T00:00:57;2.33;;;1.90;;
1601;SDS011;794;48.592;9.634;2023-03-24T00:03:25;2.43;;;1.60;;
1601;SDS011;794;48.592;9.634;2023-03-24T00:05:54;4.43;;;2.57;;
1601;SDS011;794;48.592;9.634;2023-03-24T00:08:25;5.00;;;2.20;;
1601;SDS011;794;48.592;9.634;2023-03-24T00:10:58;2.40;;;2.20;;
1601;SDS011;794;48.592;9.634;2023-03-24T00:13:28;2.63;;;2.10;;
1601;SDS011;794;48.592;9.634;2023-03-24T00:16:02;6.47;;;2.40;;
1601;SDS011;794;48.592;9.634;2023-03-24T00:18:29;2.50;;;2.30;;
1601;SDS011;794;48.592;9.634;2023-03-24T00:20:56;3.33;;;1.90;;
1601;SDS011;794;48.592;9.634;2023-03-24T00:23:24;2.70;;;2.40;;
1601;SDS011;794;48.592;9.634;2023-03-24T00:26:00;5.03;;;2.37;;
1601;SDS011;794;48.592;9.634;2023-03-24T00:28:29;3.10;;;2.00;;
1601;SDS011;794;48.592;9.634;2023-03-24T00:30:57;3.27;;;2.40;;
1601;SDS011;794;48.592;9.634;2023-03-24T00:33:24;3.40;;;3.10;;
1601;SDS011;794;48.592;9.634;2023-03-24T00:35:51;3.63;;;2.23;;
1601;SDS011;794;48.592;9.634;2023-03-24T00:38:18;3.80;;;2.80;;
1601;SDS011;794;48.592;9.634;2023-03-24T00:40:45;4.93;;;2.57;;
1601;SDS011;794;48.592;9.634;2023-03-24T00:43:19;2.93;;;2.60;;
1601;SDS011;794;48.592;9.634;2023-03-24T00:45:46;3.57;;;2.90;;
1601;SDS011;794;48.592;9.634;2023-03-24T00:48:14;2.77;;;2.53;;
1601;SDS011;794;48.592;9.634;2023-03-24T00:50:43;2.50;;;2.30;;
1601;SDS011;794;48.592;9.634;2023-03-24T00:53:11;3.30;;;2.60;;
1601;SDS011;794;48.592;9.634;2023-03-24T00:55:40;3.43;;;3.03;;
1601;SDS011;794;48.592;9.634;2023-03-24T00:58:10;3.10;;;2.40;;
1601;SDS011;794;48.592;9.634;2023-03-24T01:00:43;2.90;;;2.60;;
1601;SDS011;794;48.592;9.634;2023-03-24T01:03:10;4.63;;;2.37;;
1601;SDS011;794;48.592;9.634;2023-03-24T01:05:38;3.90;;;2.60;;
1601;SDS011;794;48.592;9.634;2023-03-24T01:08:06;3.10;;;2.60;;
1601;SDS011;794;48.592;9.634;2023-03-24T01:10:35;3.50;;;2.27;;
1601;SDS011;794;48.592;9.634;2023-03-24T01:13:14;4.57;;;2.50;;
1601;SDS011;794;48.592;9.634;2023-03-24T01:15:43;2.77;;;2.57;;
1601;SDS011;794;48.592;9.634;2023-03-24T01:18:10;2.90;;;2.70;;
1601;SDS011;794;48.592;9.634;2023-03-24T01:20:38;3.70;;;2.57;;
1601;SDS011;794;48.592;9.634;2023-03-24T01:23:09;4.30;;;2.90;;
1601;SDS011;794;48.592;9.634;2023-03-24T01:25:38;3.87;;;2.77;;
1601;SDS011;794;48.592;9.634;2023-03-24T01:28:09;1.90;;;1.80;;
1601;SDS011;794;48.592;9.634;2023-03-24T01:30:36;3.30;;;1.97;;
1601;SDS011;794;48.592;9.634;2023-03-24T01:33:05;2.67;;;2.47;;
1601;SDS011;794;48.592;9.634;2023-03-24T01:35:32;4.67;;;3.07;;
1601;SDS011;794;48.592;9.634;2023-03-24T01:37:59;3.00;;;2.30;;
1601;SDS011;794;48.592;9.634;2023-03-24T01:40:28;3.03;;;2.23;;
1601;SDS011;794;48.592;9.634;2023-03-24T01:42:57;3.17;;;2.87;;
1601;SDS011;794;48.592;9.634;2023-03-24T01:45:42;4.67;;;2.20;;
1601;SDS011;794;48.592;9.634;2023-03-24T01:48:24;2.67;;;1.90;;
1601;SDS011;794;48.592;9.634;2023-03-24T01:50:56;2.53;;;2.37;;
1601;SDS011;794;48.592;9.634;2023-03-24T01:53:26;3.00;;;2.40;;
1601;SDS011;794;48.592;9.634;2023-03-24T01:55:55;2.87;;;2.47;;
1601;SDS011;794;48.592;9.634;2023-03-24T01:58:26;2.33;;;2.03;;
1601;SDS011;794;48.592;9.634;2023-03-24T02:00:55;5.20;;;2.10;;
1601;SDS011;794;48.592;9.634;2023-03-24T02:03:24;2.33;;;2.13;;
1601;SDS011;794;48.592;9.634;2023-03-24T02:05:54;2.80;;;1.93;;
1601;SDS011;794;48.592;9.634;2023-03-24T02:08:24;3.10;;;2.07;;
1601;SDS011;794;48.592;9.634;2023-03-24T02:10:55;2.30;;;2.10;;
1601;SDS011;794;48.592;9.634;2023-03-24T02:13:24;3.27;;;1.83;;
1601;SDS011;794;48.592;9.634;2023-03-24T02:15:55;4.10;;;2.23;;
1601;SDS011;794;48.592;9.634;2023-03-24T02:18:33;5.20;;;2.23;;
1601;SDS011;794;48.592;9.634;2023-03-24T02:24:19;3.87;;;2.23;;
1601;SDS011;794;48.592;9.634;2023-03-24T02:27:03;2.03;;;1.83;;
1601;SDS011;794;48.592;9.634;2023-03-24T02:29:58;2.73;;;1.80;;
1601;SDS011;794;48.592;9.634;2023-03-24T02:32:48;3.27;;;2.70;;
1601;SDS011;794;48.592;9.634;2023-03-24T02:35:44;2.10;;;1.90;;
1601;SDS011;794;48.592;9.634;2023-03-24T02:41:24;2.63;;;1.83;;
1601;SDS011;794;48.592;9.634;2023-03-24T02:43:59;2.43;;;2.23;;
1601;SDS011;794;48.592;9.634;2023-03-24T02:46:32;4.80;;;3.90;;
1601;SDS011;794;48.592;9.634;2023-03-24T02:49:06;1.73;;;1.63;;
1601;SDS011;794;48.592;9.634;2023-03-24T02:51:43;1.90;;;1.80;;
1601;SDS011;794;48.592;9.634;2023-03-24T02:54:15;2.40;;;2.20;;
1601;SDS011;794;48.592;9.634;2023-03-24T02:56:48;4.40;;;1.97;;
1601;SDS011;794;48.592;9.634;2023-03-24T02:59:22;4.17;;;2.50;;
1601;SDS011;794;48.592;9.634;2023-03-24T03:01:57;2.70;;;2.10;;
1601;SDS011;794;48.592;9.634;2023-03-24T03:04:28;2.37;;;2.17;;
1601;SDS011;794;48.592;9.634;2023-03-24T03:06:58;1.73;;;1.60;;
1601;SDS011;794;48.592;9.634;2023-03-24T03:09:33;2.13;;;1.80;;
1601;SDS011;794;48.592;9.634;2023-03-24T03:12:06;1.80;;;1.63;;
1601;SDS011;794;48.592;9.634;2023-03-24T03:14:37;2.00;;;1.90;;
1601;SDS011;794;48.592;9.634;2023-03-24T03:17:08;2.00;;;1.80;;
1601;SDS011;794;48.592;9.634;2023-03-24T03:19:39;2.33;;;1.77;;
1601;SDS011;794;48.592;9.634;2023-03-24T03:22:10;1.77;;;1.67;;
1601;SDS011;794;48.592;9.634;2023-03-24T03:24:41;3.23;;;2.10;;
1601;SDS011;794;48.592;9.634;2023-03-24T03:27:16;6.57;;;1.50;;
1601;SDS011;794;48.592;9.634;2023-03-24T03:29:48;2.70;;;2.10;;
1601;SDS011;794;48.592;9.634;2023-03-24T03:32:20;3.43;;;1.90;;
1601;SDS011;794;48.592;9.634;2023-03-24T03:34:54;3.60;;;2.07;;
1601;SDS011;794;48.592;9.634;2023-03-24T03:37:25;3.17;;;1.70;;
1601;SDS011;794;48.592;9.634;2023-03-24T03:39:58;2.40;;;1.60;;
1601;SDS011;794;48.592;9.634;2023-03-24T03:42:31;2.83;;;2.20;;
1601;SDS011;794;48.592;9.634;2023-03-24T03:44:58;2.47;;;1.90;;
1601;SDS011;794;48.592;9.634;2023-03-24T03:47:26;2.37;;;2.03;;
1601;SDS011;794;48.592;9.634;2023-03-24T03:49:53;3.57;;;2.00;;
1601;SDS011;794;48.592;9.634;2023-03-24T03:52:20;2.80;;;2.03;;
1601;SDS011;794;48.592;9.634;2023-03-24T03:54:48;2.37;;;2.17;;
1601;SDS011;794;48.592;9.634;2023-03-24T03:57:16;1.90;;;1.80;;
1601;SDS011;794;48.592;9.634;2023-03-24T03:59:45;1.87;;;1.70;;
1601;SDS011;794;48.592;9.634;2023-03-24T04:02:18;2.50;;;2.30;;
1601;SDS011;794;48.592;9.634;2023-03-24T04:04:57;1.90;;;1.70;;
1601;SDS011;794;48.592;9.634;2023-03-24T04:07:46;3.27;;;2.20;;
1601;SDS011;794;48.592;9.634;2023-03-24T04:10:35;3.03;;;2.10;;
1601;SDS011;794;48.592;9.634;2023-03-24T04:13:15;2.50;;;2.30;;
1601;SDS011;794;48.592;9.634;2023-03-24T04:15:52;2.07;;;1.83;;
1601;SDS011;794;48.592;9.634;2023-03-24T04:18:25;3.47;;;2.43;;
1601;SDS011;794;48.592;9.634;2023-03-24T04:21:19;2.40;;;2.20;;
1601;SDS011;794;48.592;9.634;2023-03-24T04:24:02;2.10;;;1.90;;
1601;SDS011;794;48.592;9.634;2023-03-24T04:26:40;3.00;;;2.03;;
1601;SDS011;794;48.592;9.634;2023-03-24T04:29:14;2.63;;;1.90;;
1601;SDS011;794;48.592;9.634;2023-03-24T04:31:48;2.20;;;2.00;;
1601;SDS011;794;48.592;9.634;2023-03-24T04:34:19;2.20;;;2.00;;
1601;SDS011;794;48.592;9.634;2023-03-24T04:36:50;2.67;;;1.77;;
1601;SDS011;794;48.592;9.634;2023-03-24T04:39:20;1.80;;;1.70;;
1601;SDS011;794;48.592;9.634;2023-03-24T04:41:52;3.20;;;2.10;;
1601;SDS011;794;48.592;9.634;2023-03-24T04:44:21;3.10;;;2.17;;
1601;SDS011;794;48.592;9.634;2023-03-24T04:46:50;4.90;;;2.30;;
1601;SDS011;794;48.592;9.634;2023-03-24T04:49:22;2.13;;;1.67;;
1601;SDS011;794;48.592;9.634;2023-03-24T04:51:49;1.87;;;1.43;;
1601;SDS011;794;48.592;9.634;2023-03-24T04:54:16;2.60;;;1.70;;
1601;SDS011;794;48.592;9.634;2023-03-24T04:56:44;2.00;;;1.80;;
1601;SDS011;794;48.592;9.634;2023-03-24T04:59:13;4.03;;;1.80;;
1601;SDS011;794;48.592;9.634;2023-03-24T05:01:41;1.90;;;1.80;;
1601;SDS011;794;48.592;9.634;2023-03-24T05:04:15;2.77;;;1.90;;
1601;SDS011;794;48.592;9.634;2023-03-24T05:06:42;2.60;;;2.40;;
1601;SDS011;794;48.592;9.634;2023-03-24T05:09:10;2.30;;;2.03;;
1601;SDS011;794;48.592;9.634;2023-03-24T05:11:38;3.60;;;2.23;;
1601;SDS011;794;48.592;9.634;2023-03-24T05:14:05;1.70;;;1.60;;
1601;SDS011;794;48.592;9.634;2023-03-24T05:16:32;2.77;;;2.03;;
1601;SDS011;794;48.592;9.634;2023-03-24T05:18:59;1.87;;;1.70;;
1601;SDS011;794;48.592;9.634;2023-03-24T05:21:28;3.03;;;1.80;;
1601;SDS011;794;48.592;9.634;2023-03-24T05:23:55;2.53;;;1.63;;
1601;SDS011;794;48.592;9.634;2023-03-24T05:26:22;2.13;;;1.93;;
1601;SDS011;794;48.592;9.634;2023-03-24T05:28:50;1.77;;;1.60;;
1601;SDS011;794;48.592;9.634;2023-03-24T05:31:17;2.23;;;1.67;;
1601;SDS011;794;48.592;9.634;2023-03-24T05:33:44;2.53;;;1.70;;
1601;SDS011;794;48.592;9.634;2023-03-24T05:36:12;1.73;;;1.60;;
1601;SDS011;794;48.592;9.634;2023-03-24T05:38:41;1.50;;;1.40;;
1601;SDS011;794;48.592;9.634;2023-03-24T05:41:07;1.50;;;1.40;;
1601;SDS011;794;48.592;9.634;2023-03-24T05:43:35;1.80;;;1.40;;
1601;SDS011;794;48.592;9.634;2023-03-24T05:46:01;5.40;;;2.97;;
1601;SDS011;794;48.592;9.634;2023-03-24T05:48:29;3.03;;;2.63;;
1601;SDS011;794;48.592;9.634;2023-03-24T05:50:55;2.27;;;2.07;;
1601;SDS011;794;48.592;9.634;2023-03-24T05:53:22;6.93;;;4.83;;
1601;SDS011;794;48.592;9.634;2023-03-24T05:55:50;2.47;;;2.20;;
1601;SDS011;794;48.592;9.634;2023-03-24T05:58:18;3.93;;;3.63;;
1601;SDS011;794;48.592;9.634;2023-03-24T06:00:45;8.17;;;5.03;;
1601;SDS011;794;48.592;9.634;2023-03-24T06:03:12;3.00;;;2.70;;
1601;SDS011;794;48.592;9.634;2023-03-24T06:05:41;7.57;;;5.50;;
1601;SDS011;794;48.592;9.634;2023-03-24T06:08:10;6.03;;;2.70;;
1601;SDS011;794;48.592;9.634;2023-03-24T06:10:37;3.67;;;2.23;;
1601;SDS011;794;48.592;9.634;2023-03-24T06:13:06;4.33;;;2.00;;
1601;SDS011;794;48.592;9.634;2023-03-24T06:15:33;2.73;;;2.17;;
1601;SDS011;794;48.592;9.634;2023-03-24T06:18:00;3.10;;;2.00;;
1601;SDS011;794;48.592;9.634;2023-03-24T06:20:29;1.97;;;1.83;;
1601;SDS011;794;48.592;9.634;2023-03-24T06:22:56;4.80;;;2.33;;
1601;SDS011;794;48.592;9.634;2023-03-24T06:25:23;5.13;;;2.40;;
1601;SDS011;794;48.592;9.634;2023-03-24T06:27:52;2.57;;;1.90;;
1601;SDS011;794;48.592;9.634;2023-03-24T06:30:20;4.30;;;2.80;;
1601;SDS011;794;48.592;9.634;2023-03-24T06:32:48;2.50;;;2.30;;
1601;SDS011;794;48.592;9.634;2023-03-24T06:35:15;5.20;;;1.70;;
1601;SDS011;794;48.592;9.634;2023-03-24T06:37:42;2.50;;;1.90;;
1601;SDS011;794;48.592;9.634;2023-03-24T06:40:10;2.43;;;2.23;;
1601;SDS011;794;48.592;9.634;2023-03-24T06:42:40;2.37;;;1.93;;
1601;SDS011;794;48.592;9.634;2023-03-24T06:45:07;3.43;;;2.40;;
1601;SDS011;794;48.592;9.634;2023-03-24T06:47:36;3.37;;;2.40;;
1601;SDS011;794;48.592;9.634;2023-03-24T06:50:03;2.20;;;2.00;;
1601;SDS011;794;48.592;9.634;2023-03-24T06:52:32;3.40;;;2.77;;
1601;SDS011;794;48.592;9.634;2023-03-24T06:54:59;3.07;;;2.73;;
1601;SDS011;794;48.592;9.634;2023-03-24T06:57:26;3.07;;;2.30;;
1601;SDS011;794;48.592;9.634;2023-03-24T06:59:53;4.87;;;2.70;;
1601;SDS011;794;48.592;9.634;2023-03-24T07:02:20;3.43;;;2.30;;
1601;SDS011;794;48.592;9.634;2023-03-24T07:04:49;2.27;;;1.87;;
1601;SDS011;794;48.592;9.634;2023-03-24T07:07:18;2.90;;;1.97;;
1601;SDS011;794;48.592;9.634;2023-03-24T07:09:46;4.93;;;2.37;;
1601;SDS011;794;48.592;9.634;2023-03-24T07:12:14;2.00;;;1.80;;
1601;SDS011;794;48.592;9.634;2023-03-24T07:14:41;4.47;;;1.97;;
1601;SDS011;794;48.592;9.634;2023-03-24T07:17:08;2.80;;;2.47;;
1601;SDS011;794;48.592;9.634;2023-03-24T07:19:35;2.23;;;2.03;;
1601;SDS011;794;48.592;9.634;2023-03-24T07:22:04;2.67;;;2.47;;
1601;SDS011;794;48.592;9.634;2023-03-24T07:24:32;2.20;;;2.00;;
1601;SDS011;794;48.592;9.634;2023-03-24T07:26:59;2.33;;;2.03;;
1601;SDS011;794;48.592;9.634;2023-03-24T07:29:26;2.17;;;1.97;;
1601;SDS011;794;48.592;9.634;2023-03-24T07:31:53;4.20;;;3.90;;
1601;SDS011;794;48.592;9.634;2023-03-24T07:34:22;2.37;;;2.17;;
1601;SDS011;794;48.592;9.634;2023-03-24T07:36:52;3.50;;;2.47;;
1601;SDS011;794;48.592;9.634;2023-03-24T07:39:22;2.57;;;2.37;;
1601;SDS011;794;48.592;9.634;2023-03-24T07:41:49;2.80;;;2.60;;
1601;SDS011;794;48.592;9.634;2023-03-24T07:44:16;2.50;;;2.30;;
1601;SDS011;794;48.592;9.634;2023-03-24T07:46:43;2.10;;;1.90;;
1601;SDS011;794;48.592;9.634;2023-03-24T07:49:14;2.50;;;2.17;;
1601;SDS011;794;48.592;9.634;2023-03-24T07:51:41;3.03;;;2.63;;
1601;SDS011;794;48.592;9.634;2023-03-24T07:54:11;4.83;;;2.40;;
1601;SDS011;794;48.592;9.634;2023-03-24T07:56:39;3.23;;;2.40;;
1601;SDS011;794;48.592;9.634;2023-03-24T07:59:07;3.63;;;2.37;;
1601;SDS011;794;48.592;9.634;2023-03-24T08:01:35;2.63;;;2.43;;
1601;SDS011;794;48.592;9.634;2023-03-24T08:04:02;2.93;;;2.73;;
1601;SDS011;794;48.592;9.634;2023-03-24T08:06:32;2.67;;;2.43;;
1601;SDS011;794;48.592;9.634;2023-03-24T08:08:59;2.70;;;2.50;;
1601;SDS011;794;48.592;9.634;2023-03-24T08:11:26;2.90;;;2.60;;
1601;SDS011;794;48.592;9.634;2023-03-24T08:13:55;2.27;;;2.10;;
1601;SDS011;794;48.592;9.634;2023-03-24T08:16:22;3.20;;;2.23;;
1601;SDS011;794;48.592;9.634;2023-03-24T08:18:49;2.90;;;2.70;;
1601;SDS011;794;48.592;9.634;2023-03-24T08:21:16;2.90;;;2.40;;
1601;SDS011;794;48.592;9.634;2023-03-24T08:23:46;2.53;;;2.30;;
1601;SDS011;794;48.592;9.634;2023-03-24T08:26:17;2.77;;;2.57;;
1601;SDS011;794;48.592;9.634;2023-03-24T08:28:44;3.37;;;2.50;;
1601;SDS011;794;48.592;9.634;2023-03-24T08:31:12;3.13;;;2.60;;
1601;SDS011;794;48.592;9.634;2023-03-24T08:33:39;2.30;;;2.10;;
1601;SDS011;794;48.592;9.634;2023-03-24T08:36:06;3.20;;;3.00;;
1601;SDS011;794;48.592;9.634;2023-03-24T08:38:34;4.73;;;2.80;;
1601;SDS011;794;48.592;9.634;2023-03-24T08:41:03;3.43;;;2.40;;
1601;SDS011;794;48.592;9.634;2023-03-24T08:43:32;5.30;;;3.00;;
1601;SDS011;794;48.592;9.634;2023-03-24T08:46:00;3.20;;;2.50;;
1601;SDS011;794;48.592;9.634;2023-03-24T08:48:29;6.77;;;3.67;;
1601;SDS011;794;48.592;9.634;2023-03-24T08:50:56;3.17;;;2.80;;
1601;SDS011;794;48.592;9.634;2023-03-24T08:53:23;7.10;;;3.63;;
1601;SDS011;794;48.592;9.634;2023-03-24T08:56:07;9.10;;;3.30;;
1601;SDS011;794;48.592;9.634;2023-03-24T08:58:35;3.93;;;3.37;;
1601;SDS011;794;48.592;9.634;2023-03-24T09:01:03;4.83;;;3.37;;
1601;SDS011;794;48.592;9.634;2023-03-24T09:03:33;4.93;;;3.50;;
1601;SDS011;794;48.592;9.634;2023-03-24T09:06:00;2.70;;;2.50;;
1601;SDS011;794;48.592;9.634;2023-03-24T09:08:27;4.10;;;3.57;;
1601;SDS011;794;48.592;9.634;2023-03-24T09:10:56;2.90;;;2.27;;
1601;SDS011;794;48.592;9.634;2023-03-24T09:13:23;2.80;;;1.90;;
1601;SDS011;794;48.592;9.634;2023-03-24T09:15:51;2.00;;;1.70;;
1601;SDS011;794;48.592;9.634;2023-03-24T09:18:20;1.93;;;1.73;;
1601;SDS011;794;48.592;9.634;2023-03-24T09:20:48;2.00;;;1.80;;
1601;SDS011;794;48.592;9.634;2023-03-24T09:23:16;1.63;;;1.53;;
1601;SDS011;794;48.592;9.634;2023-03-24T09:25:43;1.90;;;1.60;;
1601;SDS011;794;48.592;9.634;2023-03-24T09:28:10;2.63;;;2.43;;
1601;SDS011;794;48.592;9.634;2023-03-24T09:30:39;3.57;;;1.40;;
1601;SDS011;794;48.592;9.634;2023-03-24T09:33:06;2.00;;;1.90;;
1601;SDS011;794;48.592;9.634;2023-03-24T09:35:33;2.20;;;1.73;;
1601;SDS011;794;48.592;9.634;2023-03-24T09:38:01;2.13;;;2.03;;
1601;SDS011;794;48.592;9.634;2023-03-24T09:40:29;2.10;;;1.57;;
1601;SDS011;794;48.592;9.634;2023-03-24T09:42:58;1.97;;;1.83;;
1601;SDS011;794;48.592;9.634;2023-03-24T09:45:29;1.90;;;1.80;;
1601;SDS011;794;48.592;9.634;2023-03-24T09:48:02;2.07;;;1.87;;
1601;SDS011;794;48.592;9.634;2023-03-24T09:50:34;1.70;;;1.60;;
1601;SDS011;794;48.592;9.634;2023-03-24T09:53:06;2.67;;;2.47;;
1601;SDS011;794;48.592;9.634;2023-03-24T09:55:40;1.80;;;1.60;;
1601;SDS011;794;48.592;9.634;2023-03-24T09:58:10;1.70;;;1.60;;
1601;SDS011;794;48.592;9.634;2023-03-24T10:00:38;1.60;;;1.30;;
1601;SDS011;794;48.592;9.634;2023-03-24T10:03:10;2.00;;;1.50;;
1601;SDS011;794;48.592;9.634;2023-03-24T10:05:45;2.00;;;1.30;;
1601;SDS011;794;48.592;9.634;2023-03-24T10:08:18;2.70;;;1.90;;
1601;SDS011;794;48.592;9.634;2023-03-24T10:10:52;2.17;;;1.50;;
1601;SDS011;794;48.592;9.634;2023-03-24T10:13:26;1.67;;;1.20;;
1601;SDS011;794;48.592;9.634;2023-03-24T10:16:00;3.33;;;1.87;;
1601;SDS011;794;48.592;9.634;2023-03-24T10:18:33;1.20;;;1.10;;
1601;SDS011;794;48.592;9.634;2023-03-24T10:21:06;1.53;;;1.03;;
1601;SDS011;794;48.592;9.634;2023-03-24T10:23:44;1.37;;;1.10;;
1601;SDS011;794;48.592;9.634;2023-03-24T10:26:23;1.03;;;0.90;;
1601;SDS011;794;48.592;9.634;2023-03-24T10:29:02;1.43;;;1.33;;
1601;SDS011;794;48.592;9.634;2023-03-24T10:31:41;1.80;;;0.80;;
1601;SDS011;794;48.592;9.634;2023-03-24T10:34:10;1.23;;;0.83;;
1601;SDS011;794;48.592;9.634;2023-03-24T10:36:38;1.00;;;0.67;;
1601;SDS011;794;48.592;9.634;2023-03-24T10:39:09;1.13;;;0.80;;
1601;SDS011;794;48.592;9.634;2023-03-24T10:41:40;2.30;;;0.87;;
1601;SDS011;794;48.592;9.634;2023-03-24T10:44:09;1.20;;;1.07;;
1601;SDS011;794;48.592;9.634;2023-03-24T10:46:39;0.80;;;0.63;;
1601;SDS011;794;48.592;9.634;2023-03-24T10:49:14;0.73;;;0.73;;
1601;SDS011;794;48.592;9.634;2023-03-24T10:51:44;2.00;;;0.90;;
1601;SDS011;794;48.592;9.634;2023-03-24T10:54:17;1.10;;;0.73;;
1601;SDS011;794;48.592;9.634;2023-03-24T10:56:46;1.40;;;0.80;;
1601;SDS011;794;48.592;9.634;2023-03-24T10:59:19;1.20;;;1.10;;
1601;SDS011;794;48.592;9.634;2023-03-24T11:01:54;1.20;;;1.10;;
1601;SDS011;794;48.592;9.634;2023-03-24T11:04:24;1.67;;;1.57;;
1601;SDS011;794;48.592;9.634;2023-03-24T11:06:53;0.80;;;0.80;;
1601;SDS011;794;48.592;9.634;2023-03-24T11:09:28;1.17;;;1.07;;
1601;SDS011;794;48.592;9.634;2023-03-24T11:11:57;1.40;;;1.20;;
1601;SDS011;794;48.592;9.634;2023-03-24T11:14:28;2.53;;;2.13;;
1601;SDS011;794;48.592;9.634;2023-03-24T11:17:00;0.70;;;0.70;;
1601;SDS011;794;48.592;9.634;2023-03-24T11:19:35;0.87;;;0.77;;
1601;SDS011;794;48.592;9.634;2023-03-24T11:22:04;1.00;;;0.90;;
1601;SDS011;794;48.592;9.634;2023-03-24T11:24:35;2.80;;;0.60;;
1601;SDS011;794;48.592;9.634;2023-03-24T11:27:03;1.13;;;0.70;;
1601;SDS011;794;48.592;9.634;2023-03-24T11:29:31;1.10;;;0.70;;
1601;SDS011;794;48.592;9.634;2023-03-24T11:32:09;1.00;;;0.63;;
1601;SDS011;794;48.592;9.634;2023-03-24T11:34:38;0.90;;;0.80;;
1601;SDS011;794;48.592;9.634;2023-03-24T11:37:10;1.43;;;0.83;;
1601;SDS011;794;48.592;9.634;2023-03-24T11:39:40;0.90;;;0.83;;
1601;SDS011;794;48.592;9.634;2023-03-24T11:42:14;0.77;;;0.60;;
1601;SDS011;794;48.592;9.634;2023-03-24T11:44:47;0.73;;;0.60;;
1601;SDS011;794;48.592;9.634;2023-03-24T11:47:17;0.80;;;0.80;;
1601;SDS011;794;48.592;9.634;2023-03-24T11:49:49;0.80;;;0.67;;
1601;SDS011;794;48.592;9.634;2023-03-24T11:52:21;0.50;;;0.50;;
1601;SDS011;794;48.592;9.634;2023-03-24T11:54:54;0.80;;;0.80;;
1601;SDS011;794;48.592;9.634;2023-03-24T11:57:24;0.80;;;0.50;;
1601;SDS011;794;48.592;9.634;2023-03-24T12:00:05;1.70;;;0.60;;
1601;SDS011;794;48.592;9.634;2023-03-24T12:02:44;1.67;;;0.67;;
1601;SDS011;794;48.592;9.634;2023-03-24T12:05:27;0.80;;;0.60;;
1601;SDS011;794;48.592;9.634;2023-03-24T12:10:52;0.70;;;0.60;;
1601;SDS011;794;48.592;9.634;2023-03-24T12:13:31;0.80;;;0.50;;
1601;SDS011;794;48.592;9.634;2023-03-24T12:16:04;0.80;;;0.60;;
1601;SDS011;794;48.592;9.634;2023-03-24T12:19:00;0.80;;;0.60;;
1601;SDS011;794;48.592;9.634;2023-03-24T12:21:48;1.17;;;0.77;;
1601;SDS011;794;48.592;9.634;2023-03-24T12:24:24;0.87;;;0.67;;
1601;SDS011;794;48.592;9.634;2023-03-24T12:27:06;0.70;;;0.70;;
1601;SDS011;794;48.592;9.634;2023-03-24T12:29:46;0.60;;;0.50;;
1601;SDS011;794;48.592;9.634;2023-03-24T12:32:27;1.00;;;0.60;;
1601;SDS011;794;48.592;9.634;2023-03-24T12:35:10;1.00;;;0.70;;
1601;SDS011;794;48.592;9.634;2023-03-24T12:37:51;0.70;;;0.60;;
1601;SDS011;794;48.592;9.634;2023-03-24T12:43:32;0.60;;;0.50;;
1601;SDS011;794;48.592;9.634;2023-03-24T12:46:05;0.80;;;0.60;;
1601;SDS011;794;48.592;9.634;2023-03-24T12:48:59;0.80;;;0.40;;
1601;SDS011;794;48.592;9.634;2023-03-24T12:51:39;0.70;;;0.50;;
1601;SDS011;794;48.592;9.634;2023-03-24T12:54:16;0.83;;;0.60;;
1601;SDS011;794;48.592;9.634;2023-03-24T12:56:52;0.67;;;0.60;;
1601;SDS011;794;48.592;9.634;2023-03-24T12:59:25;0.63;;;0.50;;
1601;SDS011;794;48.592;9.634;2023-03-24T13:02:00;0.80;;;0.60;;
1601;SDS011;794;48.592;9.634;2023-03-24T13:04:34;0.73;;;0.60;;
1601;SDS011;794;48.592;9.634;2023-03-24T13:07:07;1.37;;;0.63;;
1601;SDS011;794;48.592;9.634;2023-03-24T13:09:36;0.70;;;0.50;;
1601;SDS011;794;48.592;9.634;2023-03-24T13:12:11;1.00;;;0.70;;
1601;SDS011;794;48.592;9.634;2023-03-24T13:14:47;1.00;;;0.70;;
1601;SDS011;794;48.592;9.634;2023-03-24T13:17:20;0.57;;;0.50;;
1601;SDS011;794;48.592;9.634;2023-03-24T13:19:50;0.70;;;0.40;;
1601;SDS011;794;48.592;9.634;2023-03-24T13:22:19;0.60;;;0.50;;
1601;SDS011;794;48.592;9.634;2023-03-24T13:24:48;0.60;;;0.50;;
1601;SDS011;794;48.592;9.634;2023-03-24T13:27:18;0.70;;;0.50;;
1601;SDS011;794;48.592;9.634;2023-03-24T13:29:54;0.70;;;0.50;;
1601;SDS011;794;48.592;9.634;2023-03-24T13:32:30;1.07;;;0.50;;
1601;SDS011;794;48.592;9.634;2023-03-24T13:35:00;0.50;;;0.40;;
1601;SDS011;794;48.592;9.634;2023-03-24T13:37:34;0.70;;;0.60;;
1601;SDS011;794;48.592;9.634;2023-03-24T13:40:05;0.63;;;0.60;;
1601;SDS011;794;48.592;9.634;2023-03-24T13:42:36;0.60;;;0.50;;
1601;SDS011;794;48.592;9.634;2023-03-24T13:45:20;0.67;;;0.50;;
1601;SDS011;794;48.592;9.634;2023-03-24T13:48:14;0.70;;;0.53;;
1601;SDS011;794;48.592;9.634;2023-03-24T13:50:55;1.60;;;0.50;;
1601;SDS011;794;48.592;9.634;2023-03-24T13:53:29;1.60;;;0.80;;
1601;SDS011;794;48.592;9.634;2023-03-24T13:56:02;0.60;;;0.50;;
1601;SDS011;794;48.592;9.634;2023-03-24T13:58:43;0.97;;;0.63;;
1601;SDS011;794;48.592;9.634;2023-03-24T14:01:18;0.70;;;0.50;;
1601;SDS011;794;48.592;9.634;2023-03-24T14:06:52;0.77;;;0.60;;
1601;SDS011;794;48.592;9.634;2023-03-24T14:09:20;2.00;;;0.50;;
1601;SDS011;794;48.592;9.634;2023-03-24T14:17:46;0.50;;;0.50;;
1601;SDS011;794;48.592;9.634;2023-03-24T14:20:25;0.60;;;0.50;;
1601;SDS011;794;48.592;9.634;2023-03-24T14:22:57;0.87;;;0.40;;
1601;SDS011;794;48.592;9.634;2023-03-24T14:25:25;0.50;;;0.40;;
1601;SDS011;794;48.592;9.634;2023-03-24T14:28:05;0.73;;;0.50;;
1601;SDS011;794;48.592;9.634;2023-03-24T14:30:36;0.83;;;0.50;;
1601;SDS011;794;48.592;9.634;2023-03-24T14:33:22;0.50;;;0.50;;
1601;SDS011;794;48.592;9.634;2023-03-24T14:35:51;0.73;;;0.50;;
1601;SDS011;794;48.592;9.634;2023-03-24T14:38:25;0.60;;;0.60;;
1601;SDS011;794;48.592;9.634;2023-03-24T14:40:55;1.80;;;0.60;;
1601;SDS011;794;48.592;9.634;2023-03-24T14:43:24;0.60;;;0.50;;
1601;SDS011;794;48.592;9.634;2023-03-24T14:45:53;0.50;;;0.50;;
1601;SDS011;794;48.592;9.634;2023-03-24T14:48:28;0.60;;;0.50;;
1601;SDS011;794;48.592;9.634;2023-03-24T14:51:00;0.50;;;0.47;;
1601;SDS011;794;48.592;9.634;2023-03-24T14:53:34;1.37;;;0.60;;
1601;SDS011;794;48.592;9.634;2023-03-24T14:56:03;0.50;;;0.40;;
1601;SDS011;794;48.592;9.634;2023-03-24T14:58:34;0.70;;;0.50;;
1601;SDS011;794;48.592;9.634;2023-03-24T15:01:03;3.43;;;0.60;;
1601;SDS011;794;48.592;9.634;2023-03-24T15:03:33;0.50;;;0.50;;
1601;SDS011;794;48.592;9.634;2023-03-24T15:06:10;0.50;;;0.47;;
1601;SDS011;794;48.592;9.634;2023-03-24T15:08:43;0.60;;;0.40;;
1601;SDS011;794;48.592;9.634;2023-03-24T15:11:12;0.87;;;0.50;;
1601;SDS011;794;48.592;9.634;2023-03-24T15:13:41;0.67;;;0.50;;
1601;SDS011;794;48.592;9.634;2023-03-24T15:16:15;1.27;;;0.60;;
1601;SDS011;794;48.592;9.634;2023-03-24T15:18:49;0.93;;;0.80;;
1601;SDS011;794;48.592;9.634;2023-03-24T15:21:26;1.20;;;0.77;;
1601;SDS011;794;48.592;9.634;2023-03-24T15:23:55;0.67;;;0.50;;
1601;SDS011;794;48.592;9.634;2023-03-24T15:26:23;0.50;;;0.40;;
1601;SDS011;794;48.592;9.634;2023-03-24T15:28:54;0.60;;;0.50;;
1601;SDS011;794;48.592;9.634;2023-03-24T15:31:22;0.60;;;0.50;;
1601;SDS011;794;48.592;9.634;2023-03-24T15:34:00;0.60;;;0.50;;
1601;SDS011;794;48.592;9.634;2023-03-24T15:36:38;2.20;;;1.53;;
1601;SDS011;794;48.592;9.634;2023-03-24T15:39:15;4.33;;;3.93;;
1601;SDS011;794;48.592;9.634;2023-03-24T15:41:43;3.13;;;2.90;;
1601;SDS011;794;48.592;9.634;2023-03-24T15:44:14;1.03;;;0.93;;
1601;SDS011;794;48.592;9.634;2023-03-24T15:46:43;0.70;;;0.70;;
1601;SDS011;794;48.592;9.634;2023-03-24T15:49:17;0.60;;;0.60;;
1601;SDS011;794;48.592;9.634;2023-03-24T15:51:48;1.87;;;0.73;;
1601;SDS011;794;48.592;9.634;2023-03-24T15:54:20;1.00;;;0.70;;
1601;SDS011;794;48.592;9.634;2023-03-24T15:56:58;0.50;;;0.50;;
1601;SDS011;794;48.592;9.634;2023-03-24T15:59:41;0.60;;;0.50;;
1601;SDS011;794;48.592;9.634;2023-03-24T16:02:10;0.50;;;0.50;;
1601;SDS011;794;48.592;9.634;2023-03-24T16:04:44;1.00;;;0.90;;
1601;SDS011;794;48.592;9.634;2023-03-24T16:07:20;0.70;;;0.70;;
1601;SDS011;794;48.592;9.634;2023-03-24T16:09:58;0.60;;;0.60;;
1601;SDS011;794;48.592;9.634;2023-03-24T16:12:30;2.40;;;0.60;;
1601;SDS011;794;48.592;9.634;2023-03-24T16:14:58;0.77;;;0.60;;
1601;SDS011;794;48.592;9.634;2023-03-24T16:17:25;1.33;;;0.90;;